UAL9 KORD-KEWR
Flight info
| Callsign | UAL9 |
|---|---|
| Flight time | 1h 24m |
| Altitude | 35000 |
| Route | DUFEE ELX HAAKK DOXXY SOSIC KEEHO J584 SLT FQM3 |
| Aircraft | A321/M-SDE3FGHIRWY/LB1 |
Departure
| Time | 2026-05-08 03:37 |
|---|---|
| Airport | Chicago O'Hare International Airport (KORD) |
Arrival
| Time | 2026-05-08 05:01 |
|---|---|
| Airport | Newark Liberty International Airport (KEWR) |
| Time | Latitude | Longitude | Altitude | Speed | Heading |
|---|---|---|---|---|---|
| 2026-05-08 03:26 | 41.97687 | -87.91000 | 670 ft | 0 kts | 284° |
| 2026-05-08 03:27 | 41.97685 | -87.90992 | 670 ft | 4 kts | 281° |
| 2026-05-08 03:27 | 41.97685 | -87.90961 | 668 ft | 4 kts | 225° |
| 2026-05-08 03:27 | 41.97704 | -87.90955 | 668 ft | 4 kts | 154° |
| 2026-05-08 03:28 | 41.97719 | -87.90970 | 669 ft | 1 kts | 130° |
| 2026-05-08 03:28 | 41.97721 | -87.90973 | 669 ft | 0 kts | 130° |
| 2026-05-08 03:29 | 41.97692 | -87.90944 | 670 ft | 8 kts | 160° |
| 2026-05-08 03:30 | 41.97581 | -87.91044 | 670 ft | 12 kts | 256° |
| 2026-05-08 03:30 | 41.97471 | -87.91171 | 670 ft | 8 kts | 146° |
| 2026-05-08 03:31 | 41.97362 | -87.91186 | 670 ft | 12 kts | 228° |
| 2026-05-08 03:31 | 41.97250 | -87.91414 | 671 ft | 18 kts | 257° |
| 2026-05-08 03:32 | 41.97247 | -87.91593 | 669 ft | 20 kts | 272° |
| 2026-05-08 03:32 | 41.97243 | -87.91796 | 671 ft | 23 kts | 266° |
| 2026-05-08 03:32 | 41.97247 | -87.92060 | 671 ft | 26 kts | 271° |
| 2026-05-08 03:32 | 41.97245 | -87.92312 | 671 ft | 28 kts | 269° |
| 2026-05-08 03:33 | 41.97242 | -87.92563 | 671 ft | 27 kts | 269° |
| 2026-05-08 03:33 | 41.97241 | -87.92794 | 671 ft | 22 kts | 270° |
| 2026-05-08 03:33 | 41.97242 | -87.92992 | 671 ft | 21 kts | 270° |
| 2026-05-08 03:33 | 41.97211 | -87.93121 | 669 ft | 13 kts | 208° |
| 2026-05-08 03:34 | 41.97130 | -87.93133 | 671 ft | 11 kts | 182° |
| 2026-05-08 03:34 | 41.97043 | -87.93134 | 673 ft | 14 kts | 180° |
| 2026-05-08 03:34 | 41.96949 | -87.93135 | 677 ft | 10 kts | 180° |
| 2026-05-08 03:34 | 41.96901 | -87.93100 | 678 ft | 3 kts | 129° |
| 2026-05-08 03:35 | 41.96896 | -87.93085 | 677 ft | 1 kts | 109° |
| 2026-05-08 03:35 | 41.96901 | -87.93036 | 677 ft | 10 kts | 94° |
| 2026-05-08 03:35 | 41.96900 | -87.93020 | 677 ft | 0 kts | 92° |
| 2026-05-08 03:36 | 41.96900 | -87.92914 | 675 ft | 45 kts | 89° |
| 2026-05-08 03:36 | 41.96902 | -87.92088 | 673 ft | 127 kts | 89° |
| 2026-05-08 03:36 | 41.96900 | -87.90611 | 680 ft | 186 kts | 90° |
| 2026-05-08 03:37 | 41.96912 | -87.88858 | 1556 ft | 177 kts | 87° |
| 2026-05-08 03:37 | 41.96976 | -87.87145 | 2305 ft | 192 kts | 79° |
| 2026-05-08 03:37 | 41.97264 | -87.85403 | 3056 ft | 186 kts | 69° |
| 2026-05-08 03:37 | 41.97608 | -87.83741 | 3609 ft | 188 kts | 73° |
| 2026-05-08 03:38 | 41.97909 | -87.81947 | 3821 ft | 208 kts | 74° |
| 2026-05-08 03:38 | 41.98255 | -87.79935 | 3973 ft | 232 kts | 73° |
| 2026-05-08 03:38 | 41.98652 | -87.77711 | 3884 ft | 267 kts | 74° |
| 2026-05-08 03:38 | 41.99105 | -87.75175 | 4295 ft | 281 kts | 74° |
| 2026-05-08 03:39 | 41.99554 | -87.72621 | 5159 ft | 282 kts | 75° |
| 2026-05-08 03:39 | 42.00011 | -87.70028 | 5873 ft | 287 kts | 75° |
| 2026-05-08 03:39 | 42.00479 | -87.67394 | 6576 ft | 292 kts | 74° |
| 2026-05-08 03:39 | 42.00956 | -87.64716 | 7242 ft | 297 kts | 74° |
| 2026-05-08 03:40 | 42.01442 | -87.61993 | 7911 ft | 302 kts | 74° |
| 2026-05-08 03:40 | 42.01936 | -87.59221 | 8577 ft | 307 kts | 73° |
| 2026-05-08 03:40 | 42.02436 | -87.56407 | 9239 ft | 312 kts | 73° |
| 2026-05-08 03:40 | 42.02946 | -87.53543 | 9891 ft | 317 kts | 73° |
| 2026-05-08 03:41 | 42.03469 | -87.50616 | 10335 ft | 331 kts | 73° |
| 2026-05-08 03:41 | 42.04022 | -87.47552 | 10462 ft | 352 kts | 73° |
| 2026-05-08 03:41 | 42.04613 | -87.44265 | 10680 ft | 370 kts | 73° |
| 2026-05-08 03:41 | 42.05216 | -87.40857 | 11213 ft | 377 kts | 73° |
| 2026-05-08 03:42 | 42.05825 | -87.37394 | 11835 ft | 381 kts | 73° |
| 2026-05-08 03:42 | 42.06440 | -87.33901 | 12460 ft | 385 kts | 73° |
| 2026-05-08 03:42 | 42.07059 | -87.30380 | 13072 ft | 390 kts | 73° |
| 2026-05-08 03:42 | 42.07685 | -87.26810 | 13678 ft | 394 kts | 73° |
| 2026-05-08 03:43 | 42.08317 | -87.23191 | 14229 ft | 398 kts | 72° |
| 2026-05-08 03:43 | 42.08955 | -87.19546 | 14790 ft | 402 kts | 72° |
| 2026-05-08 03:43 | 42.09598 | -87.15873 | 15345 ft | 405 kts | 72° |
| 2026-05-08 03:43 | 42.10246 | -87.12159 | 15894 ft | 409 kts | 72° |
| 2026-05-08 03:44 | 42.10896 | -87.08420 | 16444 ft | 412 kts | 73° |
| 2026-05-08 03:44 | 42.11331 | -87.04564 | 16970 ft | 420 kts | 83° |
| 2026-05-08 03:44 | 42.11477 | -87.00612 | 17503 ft | 424 kts | 84° |
| 2026-05-08 03:44 | 42.11619 | -86.96676 | 18027 ft | 427 kts | 84° |
| 2026-05-08 03:45 | 42.11764 | -86.92657 | 18512 ft | 430 kts | 84° |
| 2026-05-08 03:45 | 42.11912 | -86.88615 | 18965 ft | 434 kts | 84° |
| 2026-05-08 03:45 | 42.12062 | -86.84546 | 19396 ft | 437 kts | 84° |
| 2026-05-08 03:45 | 42.12213 | -86.80431 | 19821 ft | 441 kts | 84° |
| 2026-05-08 03:46 | 42.12362 | -86.76297 | 20233 ft | 444 kts | 83° |
| 2026-05-08 03:46 | 42.12510 | -86.72120 | 20634 ft | 448 kts | 83° |
| 2026-05-08 03:46 | 42.12654 | -86.67916 | 21059 ft | 451 kts | 83° |
| 2026-05-08 03:46 | 42.12799 | -86.63675 | 21466 ft | 455 kts | 83° |
| 2026-05-08 03:47 | 42.12945 | -86.59401 | 21876 ft | 458 kts | 83° |
| 2026-05-08 03:47 | 42.13093 | -86.55091 | 22307 ft | 461 kts | 84° |
| 2026-05-08 03:47 | 42.13238 | -86.50773 | 22770 ft | 463 kts | 84° |
| 2026-05-08 03:47 | 42.13381 | -86.46428 | 23184 ft | 465 kts | 84° |
| 2026-05-08 03:48 | 42.13521 | -86.42060 | 23562 ft | 469 kts | 84° |
| 2026-05-08 03:48 | 42.13662 | -86.37661 | 23869 ft | 472 kts | 84° |
| 2026-05-08 03:48 | 42.13802 | -86.33224 | 24170 ft | 475 kts | 84° |
| 2026-05-08 03:48 | 42.13940 | -86.28819 | 24533 ft | 478 kts | 84° |
| 2026-05-08 03:49 | 42.14082 | -86.24339 | 24873 ft | 480 kts | 84° |
| 2026-05-08 03:49 | 42.14222 | -86.19822 | 25168 ft | 483 kts | 84° |
| 2026-05-08 03:49 | 42.14359 | -86.15282 | 25496 ft | 487 kts | 84° |
| 2026-05-08 03:49 | 42.14484 | -86.10712 | 25782 ft | 490 kts | 85° |
| 2026-05-08 03:50 | 42.14533 | -86.06085 | 26055 ft | 494 kts | 86° |
| 2026-05-08 03:50 | 42.14510 | -86.01433 | 26325 ft | 498 kts | 88° |
| 2026-05-08 03:50 | 42.14443 | -85.96744 | 26594 ft | 502 kts | 88° |
| 2026-05-08 03:50 | 42.14360 | -85.92015 | 26855 ft | 506 kts | 88° |
| 2026-05-08 03:51 | 42.14284 | -85.87259 | 27111 ft | 509 kts | 88° |
| 2026-05-08 03:51 | 42.14222 | -85.82478 | 27372 ft | 512 kts | 87° |
| 2026-05-08 03:51 | 42.14178 | -85.77725 | 27616 ft | 515 kts | 87° |
| 2026-05-08 03:51 | 42.14144 | -85.72863 | 27868 ft | 519 kts | 87° |
| 2026-05-08 03:52 | 42.14112 | -85.67987 | 28110 ft | 522 kts | 87° |
| 2026-05-08 03:52 | 42.14079 | -85.63085 | 28347 ft | 525 kts | 87° |
| 2026-05-08 03:52 | 42.14038 | -85.58151 | 28581 ft | 528 kts | 87° |
| 2026-05-08 03:52 | 42.13986 | -85.53191 | 28818 ft | 531 kts | 87° |
| 2026-05-08 03:53 | 42.13927 | -85.48195 | 29033 ft | 534 kts | 87° |
| 2026-05-08 03:53 | 42.13867 | -85.43168 | 29253 ft | 537 kts | 87° |
| 2026-05-08 03:53 | 42.13806 | -85.38105 | 29464 ft | 541 kts | 87° |
| 2026-05-08 03:53 | 42.13746 | -85.33026 | 29658 ft | 544 kts | 87° |
| 2026-05-08 03:54 | 42.13684 | -85.27916 | 29860 ft | 547 kts | 87° |
| 2026-05-08 03:54 | 42.13617 | -85.22772 | 30062 ft | 550 kts | 87° |
| 2026-05-08 03:54 | 42.13546 | -85.17605 | 30256 ft | 552 kts | 87° |
| 2026-05-08 03:54 | 42.13473 | -85.12495 | 30541 ft | 552 kts | 87° |
| 2026-05-08 03:55 | 42.13396 | -85.07325 | 30850 ft | 552 kts | 87° |
| 2026-05-08 03:55 | 42.13316 | -85.02162 | 31198 ft | 551 kts | 88° |
| 2026-05-08 03:55 | 42.13233 | -84.97008 | 31522 ft | 550 kts | 88° |
| 2026-05-08 03:55 | 42.13144 | -84.91847 | 31836 ft | 549 kts | 88° |
| 2026-05-08 03:56 | 42.13050 | -84.86700 | 32144 ft | 549 kts | 88° |
| 2026-05-08 03:56 | 42.12952 | -84.81560 | 32445 ft | 549 kts | 88° |
| 2026-05-08 03:56 | 42.12851 | -84.76420 | 32749 ft | 548 kts | 88° |
| 2026-05-08 03:56 | 42.12748 | -84.71281 | 33049 ft | 548 kts | 88° |
| 2026-05-08 03:57 | 42.12646 | -84.66161 | 33353 ft | 547 kts | 89° |
| 2026-05-08 03:57 | 42.12544 | -84.61051 | 33695 ft | 545 kts | 89° |
| 2026-05-08 03:57 | 42.12440 | -84.55950 | 34011 ft | 544 kts | 89° |
| 2026-05-08 03:57 | 42.12335 | -84.50856 | 34258 ft | 543 kts | 88° |
| 2026-05-08 03:58 | 42.12461 | -84.45859 | 34492 ft | 538 kts | 80° |
| 2026-05-08 03:58 | 42.12975 | -84.40891 | 34712 ft | 535 kts | 77° |
| 2026-05-08 03:58 | 42.13534 | -84.35928 | 34918 ft | 536 kts | 77° |
| 2026-05-08 03:59 | 42.14654 | -84.26005 | 34994 ft | 535 kts | 77° |
| 2026-05-08 03:59 | 42.15766 | -84.16113 | 34989 ft | 533 kts | 77° |
| 2026-05-08 04:00 | 42.16865 | -84.06216 | 34987 ft | 533 kts | 77° |
| 2026-05-08 04:00 | 42.17940 | -83.96327 | 34987 ft | 534 kts | 78° |
| 2026-05-08 04:01 | 42.19005 | -83.86425 | 34961 ft | 533 kts | 78° |
| 2026-05-08 04:01 | 42.20063 | -83.76555 | 34962 ft | 532 kts | 78° |
| 2026-05-08 04:02 | 42.21122 | -83.66679 | 34961 ft | 532 kts | 78° |
| 2026-05-08 04:02 | 42.22167 | -83.56809 | 34971 ft | 532 kts | 78° |
| 2026-05-08 04:03 | 42.22355 | -83.46839 | 34959 ft | 533 kts | 96° |
| 2026-05-08 04:03 | 42.19919 | -83.32230 | 34969 ft | 537 kts | 104° |
| 2026-05-08 04:04 | 42.18143 | -83.22428 | 34971 ft | 537 kts | 104° |
| 2026-05-08 04:04 | 42.16360 | -83.12646 | 34973 ft | 537 kts | 104° |
| 2026-05-08 04:05 | 42.14564 | -83.02881 | 34972 ft | 536 kts | 104° |
| 2026-05-08 04:05 | 42.12755 | -82.93134 | 34973 ft | 536 kts | 104° |
| 2026-05-08 04:06 | 42.10942 | -82.83386 | 34975 ft | 536 kts | 104° |
| 2026-05-08 04:06 | 42.09122 | -82.73651 | 34975 ft | 536 kts | 105° |
| 2026-05-08 04:07 | 42.07303 | -82.63929 | 34977 ft | 536 kts | 105° |
| 2026-05-08 04:07 | 42.05485 | -82.54274 | 34978 ft | 536 kts | 105° |
| 2026-05-08 04:08 | 42.03640 | -82.44566 | 34980 ft | 536 kts | 105° |
| 2026-05-08 04:08 | 42.01785 | -82.34866 | 34983 ft | 535 kts | 105° |
| 2026-05-08 04:09 | 42.00228 | -82.26747 | 34985 ft | 535 kts | 105° |
| 2026-05-08 04:09 | 41.98378 | -82.17120 | 34986 ft | 535 kts | 105° |
| 2026-05-08 04:10 | 41.96509 | -82.07441 | 34989 ft | 535 kts | 106° |
| 2026-05-08 04:10 | 41.94627 | -81.97767 | 34988 ft | 535 kts | 106° |
| 2026-05-08 04:11 | 41.92740 | -81.88092 | 34991 ft | 535 kts | 106° |
| 2026-05-08 04:11 | 41.91339 | -81.78298 | 34989 ft | 535 kts | 96° |
| 2026-05-08 04:12 | 41.90474 | -81.68359 | 34988 ft | 536 kts | 96° |
| 2026-05-08 04:12 | 41.89589 | -81.58436 | 34988 ft | 535 kts | 97° |
| 2026-05-08 04:13 | 41.88698 | -81.48576 | 34990 ft | 535 kts | 97° |
| 2026-05-08 04:13 | 41.87790 | -81.38679 | 34990 ft | 535 kts | 97° |
| 2026-05-08 04:14 | 41.86871 | -81.28763 | 34990 ft | 535 kts | 97° |
| 2026-05-08 04:14 | 41.85953 | -81.18851 | 34989 ft | 535 kts | 97° |
| 2026-05-08 04:15 | 41.85027 | -81.08923 | 34992 ft | 538 kts | 98° |
| 2026-05-08 04:15 | 41.84082 | -80.98945 | 34986 ft | 539 kts | 98° |
| 2026-05-08 04:16 | 41.83129 | -80.88967 | 34995 ft | 540 kts | 98° |
| 2026-05-08 04:16 | 41.82170 | -80.79029 | 34981 ft | 541 kts | 98° |
| 2026-05-08 04:17 | 41.81201 | -80.69029 | 34980 ft | 541 kts | 98° |
| 2026-05-08 04:17 | 41.80221 | -80.59025 | 34991 ft | 541 kts | 98° |
| 2026-05-08 04:18 | 41.79229 | -80.49018 | 34985 ft | 543 kts | 99° |
| 2026-05-08 04:18 | 41.78218 | -80.38986 | 34984 ft | 544 kts | 99° |
| 2026-05-08 04:19 | 41.77209 | -80.28948 | 34984 ft | 544 kts | 99° |
| 2026-05-08 04:19 | 41.76190 | -80.18909 | 34983 ft | 544 kts | 99° |
| 2026-05-08 04:20 | 41.75153 | -80.08862 | 34986 ft | 545 kts | 99° |
| 2026-05-08 04:20 | 41.74112 | -79.98799 | 34991 ft | 546 kts | 99° |
| 2026-05-08 04:21 | 41.73055 | -79.88738 | 34998 ft | 546 kts | 99° |
| 2026-05-08 04:21 | 41.71996 | -79.78671 | 34996 ft | 546 kts | 99° |
| 2026-05-08 04:22 | 41.70938 | -79.68673 | 35008 ft | 547 kts | 99° |
| 2026-05-08 04:22 | 41.69857 | -79.58601 | 35008 ft | 547 kts | 99° |
| 2026-05-08 04:23 | 41.68763 | -79.48527 | 35008 ft | 547 kts | 99° |
| 2026-05-08 04:23 | 41.67667 | -79.38460 | 35005 ft | 547 kts | 99° |
| 2026-05-08 04:24 | 41.66566 | -79.28391 | 35005 ft | 547 kts | 99° |
| 2026-05-08 04:24 | 41.65459 | -79.18319 | 35002 ft | 547 kts | 99° |
| 2026-05-08 04:25 | 41.64337 | -79.08251 | 34997 ft | 547 kts | 99° |
| 2026-05-08 04:25 | 41.63196 | -78.98172 | 34990 ft | 548 kts | 99° |
| 2026-05-08 04:26 | 41.62047 | -78.88105 | 34990 ft | 548 kts | 99° |
| 2026-05-08 04:26 | 41.60891 | -78.78036 | 34983 ft | 548 kts | 100° |
| 2026-05-08 04:27 | 41.59735 | -78.67980 | 34981 ft | 548 kts | 100° |
| 2026-05-08 04:27 | 41.58570 | -78.57997 | 34974 ft | 546 kts | 100° |
| 2026-05-08 04:28 | 41.57395 | -78.47971 | 34977 ft | 546 kts | 100° |
| 2026-05-08 04:28 | 41.56213 | -78.37944 | 34982 ft | 546 kts | 100° |
| 2026-05-08 04:29 | 41.55024 | -78.27930 | 34988 ft | 546 kts | 100° |
| 2026-05-08 04:29 | 41.53824 | -78.17920 | 34990 ft | 546 kts | 100° |
| 2026-05-08 04:30 | 41.52608 | -78.07908 | 34987 ft | 546 kts | 100° |
| 2026-05-08 04:30 | 41.51383 | -77.97902 | 34989 ft | 546 kts | 100° |
| 2026-05-08 04:31 | 41.50078 | -77.87915 | 34985 ft | 545 kts | 102° |
| 2026-05-08 04:31 | 41.48642 | -77.77993 | 34981 ft | 545 kts | 103° |
| 2026-05-08 04:32 | 41.47183 | -77.68088 | 34981 ft | 545 kts | 103° |
| 2026-05-08 04:32 | 41.45759 | -77.58235 | 34973 ft | 545 kts | 102° |
| 2026-05-08 04:33 | 41.44346 | -77.48341 | 34971 ft | 542 kts | 103° |
| 2026-05-08 04:33 | 41.42916 | -77.38462 | 34972 ft | 542 kts | 103° |
| 2026-05-08 04:34 | 41.41471 | -77.28596 | 34970 ft | 542 kts | 103° |
| 2026-05-08 04:34 | 41.40018 | -77.18726 | 34966 ft | 542 kts | 103° |
| 2026-05-08 04:35 | 41.38564 | -77.08880 | 34975 ft | 542 kts | 103° |
| 2026-05-08 04:35 | 41.37116 | -76.99103 | 34976 ft | 541 kts | 103° |
| 2026-05-08 04:36 | 41.35648 | -76.89285 | 34977 ft | 541 kts | 103° |
| 2026-05-08 04:36 | 41.34162 | -76.79492 | 34950 ft | 539 kts | 105° |
| 2026-05-08 04:37 | 41.31881 | -76.70078 | 34858 ft | 534 kts | 114° |
| 2026-05-08 04:37 | 41.30633 | -76.65432 | 34625 ft | 533 kts | 114° |
| 2026-05-08 04:37 | 41.29391 | -76.60786 | 34390 ft | 533 kts | 113° |
| 2026-05-08 04:38 | 41.28152 | -76.56136 | 34012 ft | 535 kts | 113° |
| 2026-05-08 04:38 | 41.26890 | -76.51421 | 32729 ft | 549 kts | 114° |
| 2026-05-08 04:38 | 41.25607 | -76.46655 | 32244 ft | 543 kts | 115° |
| 2026-05-08 04:38 | 41.24340 | -76.41949 | 31576 ft | 542 kts | 115° |
| 2026-05-08 04:39 | 41.23062 | -76.37218 | 30941 ft | 542 kts | 115° |
| 2026-05-08 04:39 | 41.21787 | -76.32508 | 30275 ft | 543 kts | 115° |
| 2026-05-08 04:39 | 41.20509 | -76.27797 | 29549 ft | 543 kts | 115° |
| 2026-05-08 04:39 | 41.19233 | -76.23091 | 28945 ft | 539 kts | 115° |
| 2026-05-08 04:40 | 41.17968 | -76.18426 | 28409 ft | 534 kts | 115° |
| 2026-05-08 04:40 | 41.16712 | -76.13809 | 27921 ft | 528 kts | 115° |
| 2026-05-08 04:40 | 41.15472 | -76.09260 | 27401 ft | 523 kts | 116° |
| 2026-05-08 04:40 | 41.14240 | -76.04748 | 26999 ft | 516 kts | 116° |
| 2026-05-08 04:41 | 41.13021 | -76.00294 | 26506 ft | 510 kts | 116° |
| 2026-05-08 04:41 | 41.11833 | -75.95967 | 25777 ft | 498 kts | 116° |
| 2026-05-08 04:41 | 41.10661 | -75.91705 | 25285 ft | 488 kts | 116° |
| 2026-05-08 04:41 | 41.09500 | -75.87497 | 24814 ft | 482 kts | 116° |
| 2026-05-08 04:42 | 41.08356 | -75.83355 | 24352 ft | 476 kts | 117° |
| 2026-05-08 04:42 | 41.07227 | -75.79272 | 23889 ft | 469 kts | 117° |
| 2026-05-08 04:42 | 41.06109 | -75.75232 | 23410 ft | 463 kts | 117° |
| 2026-05-08 04:42 | 41.05005 | -75.71244 | 22902 ft | 456 kts | 117° |
| 2026-05-08 04:43 | 41.03919 | -75.67333 | 22454 ft | 449 kts | 117° |
| 2026-05-08 04:43 | 41.02847 | -75.63491 | 22010 ft | 442 kts | 117° |
| 2026-05-08 04:43 | 41.01788 | -75.59707 | 21564 ft | 435 kts | 117° |
| 2026-05-08 04:43 | 41.00744 | -75.55973 | 21118 ft | 429 kts | 116° |
| 2026-05-08 04:44 | 40.99712 | -75.52281 | 20663 ft | 424 kts | 116° |
| 2026-05-08 04:44 | 40.99178 | -75.50369 | 20432 ft | 422 kts | 116° |
| 2026-05-08 04:44 | 40.99161 | -75.50309 | 20425 ft | 422 kts | 116° |
| 2026-05-08 04:44 | 40.98150 | -75.46684 | 19987 ft | 417 kts | 116° |
| 2026-05-08 04:45 | 40.97149 | -75.43107 | 19541 ft | 412 kts | 116° |
| 2026-05-08 04:45 | 40.96153 | -75.39559 | 19105 ft | 408 kts | 116° |
| 2026-05-08 04:45 | 40.95166 | -75.36052 | 18680 ft | 404 kts | 116° |
| 2026-05-08 04:45 | 40.94191 | -75.32591 | 18247 ft | 400 kts | 115° |
| 2026-05-08 04:46 | 40.93222 | -75.29164 | 17868 ft | 393 kts | 115° |
| 2026-05-08 04:46 | 40.92274 | -75.25810 | 17491 ft | 387 kts | 115° |
| 2026-05-08 04:46 | 40.91337 | -75.22501 | 17083 ft | 382 kts | 115° |
| 2026-05-08 04:46 | 40.90414 | -75.19237 | 16673 ft | 376 kts | 115° |
| 2026-05-08 04:47 | 40.89501 | -75.16016 | 16285 ft | 371 kts | 115° |
| 2026-05-08 04:47 | 40.88600 | -75.12838 | 15901 ft | 366 kts | 114° |
| 2026-05-08 04:47 | 40.87724 | -75.09744 | 15525 ft | 362 kts | 114° |
| 2026-05-08 04:47 | 40.86850 | -75.06646 | 15146 ft | 358 kts | 114° |
| 2026-05-08 04:48 | 40.85987 | -75.03582 | 14759 ft | 354 kts | 114° |
| 2026-05-08 04:48 | 40.85129 | -75.00554 | 14386 ft | 350 kts | 114° |
| 2026-05-08 04:48 | 40.84281 | -74.97559 | 14015 ft | 346 kts | 113° |
| 2026-05-08 04:48 | 40.83441 | -74.94598 | 13624 ft | 342 kts | 113° |
| 2026-05-08 04:49 | 40.82554 | -74.91705 | 13226 ft | 336 kts | 123° |
| 2026-05-08 04:49 | 40.81175 | -74.89300 | 12856 ft | 325 kts | 135° |
| 2026-05-08 04:49 | 40.79706 | -74.87045 | 12494 ft | 323 kts | 135° |
| 2026-05-08 04:49 | 40.78237 | -74.84817 | 12130 ft | 321 kts | 135° |
| 2026-05-08 04:50 | 40.76775 | -74.82612 | 11747 ft | 319 kts | 135° |
| 2026-05-08 04:50 | 40.75311 | -74.80405 | 11395 ft | 320 kts | 135° |
| 2026-05-08 04:50 | 40.73850 | -74.78200 | 11002 ft | 319 kts | 135° |
| 2026-05-08 04:50 | 40.72395 | -74.76004 | 10634 ft | 317 kts | 135° |
| 2026-05-08 04:51 | 40.70946 | -74.73820 | 10266 ft | 315 kts | 135° |
| 2026-05-08 04:51 | 40.69521 | -74.71674 | 10171 ft | 311 kts | 135° |
| 2026-05-08 04:51 | 40.68095 | -74.69528 | 10054 ft | 311 kts | 135° |
| 2026-05-08 04:51 | 40.66670 | -74.67379 | 9752 ft | 313 kts | 135° |
| 2026-05-08 04:52 | 40.65234 | -74.65216 | 9356 ft | 311 kts | 135° |
| 2026-05-08 04:52 | 40.63819 | -74.63082 | 9011 ft | 308 kts | 134° |
| 2026-05-08 04:52 | 40.62415 | -74.60966 | 8599 ft | 306 kts | 134° |
| 2026-05-08 04:52 | 40.61021 | -74.58864 | 8228 ft | 303 kts | 134° |
| 2026-05-08 04:53 | 40.59635 | -74.56780 | 7861 ft | 301 kts | 134° |
| 2026-05-08 04:53 | 40.58260 | -74.54716 | 7506 ft | 299 kts | 134° |
| 2026-05-08 04:53 | 40.56896 | -74.52670 | 7144 ft | 296 kts | 134° |
| 2026-05-08 04:53 | 40.55545 | -74.50646 | 6796 ft | 293 kts | 134° |
| 2026-05-08 04:54 | 40.54204 | -74.48643 | 6416 ft | 289 kts | 134° |
| 2026-05-08 04:54 | 40.53332 | -74.47337 | 5948 ft | 286 kts | 133° |
| 2026-05-08 04:54 | 40.52028 | -74.45385 | 5221 ft | 282 kts | 133° |
| 2026-05-08 04:54 | 40.50753 | -74.43462 | 4620 ft | 274 kts | 130° |
| 2026-05-08 04:55 | 40.49786 | -74.41326 | 4301 ft | 273 kts | 111° |
| 2026-05-08 04:55 | 40.49361 | -74.38914 | 3922 ft | 271 kts | 93° |
| 2026-05-08 04:55 | 40.49507 | -74.36541 | 3774 ft | 253 kts | 76° |
| 2026-05-08 04:55 | 40.50005 | -74.34381 | 3692 ft | 242 kts | 72° |
| 2026-05-08 04:56 | 40.50501 | -74.32284 | 3600 ft | 239 kts | 72° |
| 2026-05-08 04:56 | 40.50987 | -74.30212 | 3495 ft | 238 kts | 72° |
| 2026-05-08 04:56 | 40.51704 | -74.28278 | 3381 ft | 235 kts | 51° |
| 2026-05-08 04:56 | 40.52919 | -74.26843 | 3130 ft | 234 kts | 28° |
| 2026-05-08 04:57 | 40.54336 | -74.25939 | 2969 ft | 219 kts | 25° |
| 2026-05-08 04:57 | 40.55646 | -74.25108 | 2716 ft | 203 kts | 26° |
| 2026-05-08 04:57 | 40.56859 | -74.24338 | 2445 ft | 185 kts | 26° |
| 2026-05-08 04:57 | 40.57978 | -74.23630 | 2202 ft | 172 kts | 26° |
| 2026-05-08 04:58 | 40.59028 | -74.22964 | 1981 ft | 164 kts | 26° |
| 2026-05-08 04:58 | 40.60014 | -74.22339 | 1792 ft | 152 kts | 26° |
| 2026-05-08 04:58 | 40.60949 | -74.21747 | 1581 ft | 147 kts | 26° |
| 2026-05-08 04:58 | 40.61869 | -74.21163 | 1379 ft | 146 kts | 26° |
| 2026-05-08 04:59 | 40.62785 | -74.20582 | 1181 ft | 146 kts | 26° |
| 2026-05-08 04:59 | 40.63688 | -74.20009 | 987 ft | 146 kts | 25° |
| 2026-05-08 04:59 | 40.64605 | -74.19428 | 795 ft | 147 kts | 25° |
| 2026-05-08 04:59 | 40.65534 | -74.18838 | 602 ft | 149 kts | 24° |
| 2026-05-08 05:00 | 40.66467 | -74.18246 | 408 ft | 150 kts | 24° |
| 2026-05-08 05:00 | 40.67407 | -74.17649 | 220 ft | 150 kts | 24° |
| 2026-05-08 05:00 | 40.68346 | -74.17052 | 37 ft | 149 kts | 24° |
| 2026-05-08 05:00 | 40.69188 | -74.16521 | 24 ft | 103 kts | 26° |
| 2026-05-08 05:01 | 40.69592 | -74.16288 | 22 ft | 37 kts | 7° |
| 2026-05-08 05:01 | 40.69691 | -74.16298 | 22 ft | 3 kts | 352° |
| 2026-05-08 05:01 | 40.69707 | -74.16308 | 22 ft | 2 kts | 329° |
| 2026-05-08 05:01 | 40.69722 | -74.16326 | 22 ft | 4 kts | 309° |
| 2026-05-08 05:02 | 40.69727 | -74.16366 | 22 ft | 5 kts | 260° |
| 2026-05-08 05:02 | 40.69697 | -74.16409 | 22 ft | 8 kts | 209° |
| 2026-05-08 05:02 | 40.69639 | -74.16448 | 22 ft | 11 kts | 206° |
| 2026-05-08 05:02 | 40.69562 | -74.16497 | 22 ft | 14 kts | 206° |
| 2026-05-08 05:03 | 40.69469 | -74.16559 | 23 ft | 16 kts | 206° |
| 2026-05-08 05:03 | 40.69356 | -74.16633 | 23 ft | 20 kts | 208° |
| 2026-05-08 05:03 | 40.69224 | -74.16713 | 23 ft | 23 kts | 201° |
| 2026-05-08 05:03 | 40.69089 | -74.16796 | 23 ft | 17 kts | 206° |
| 2026-05-08 05:04 | 40.69034 | -74.16850 | 25 ft | 8 kts | 247° |
| 2026-05-08 05:04 | 40.69031 | -74.16908 | 23 ft | 5 kts | 277° |
| 2026-05-08 05:04 | 40.69046 | -74.16952 | 25 ft | 7 kts | 295° |
| 2026-05-08 05:04 | 40.69075 | -74.17026 | 22 ft | 11 kts | 297° |
| 2026-05-08 05:05 | 40.69128 | -74.17082 | 22 ft | 11 kts | 1° |
| 2026-05-08 05:05 | 40.69200 | -74.17076 | 22 ft | 5 kts | 344° |
| 2026-05-08 05:05 | 40.69220 | -74.17104 | 22 ft | 5 kts | 302° |
| 2026-05-08 05:05 | 40.69247 | -74.17167 | 22 ft | 11 kts | 298° |
| 2026-05-08 05:06 | 40.69295 | -74.17278 | 22 ft | 13 kts | 301° |
| 2026-05-08 05:06 | 40.69307 | -74.17307 | 22 ft | 6 kts | 296° |
| 2026-05-08 05:06 | 40.69334 | -74.17365 | 22 ft | 7 kts | 317° |
| 2026-05-08 05:06 | 40.69367 | -74.17373 | 22 ft | 8 kts | 356° |
| 2026-05-08 05:07 | 40.69400 | -74.17362 | 22 ft | 0 kts | 15° |
| 2026-05-08 05:07 | 40.69407 | -74.17360 | 22 ft | 0 kts | 14° |